Airfield :
LOGIN :

Register | Disclaimer

   EN    FR    IT 

 










Legend :    VFR   Marginal VFR   IFR   Intensive IFR   Very Intensive IFR
Visi :
Ceiling :
>= 8 km
>= 3000ft
5 to 8 km
1000 to 3000 ft
1500m to 5 km
500 to 1000 ft
800 to 1500m
200 to 500 ft
< 800m
< 200 ft
Symbols :   Thunderstorms  Fog  Heavy snow  Heavy precipitations  Wind > 20 kt
SIGMETs :     Misc.  Thunderstorms  Icing  Turbulence  Mountain Waves  Volcanic Ashes







- Airport Elevation : 1090 ft
- IATA code : CFE
- Download approach charts


LFLC - Clermont-Ferrand Auvergne

CURRENT METAR :
  • 272300Z AUTO 20004KT 170V250 CAVOK 15/14 Q1017 TEMPO SHRA FEW060CB BKN070

EXPIRED METARs :
  • 272230Z AUTO 21006KT CAVOK 15/14 Q1017 TEMPO SHRA FEW060CB BKN070
  • 272200Z AUTO 19003KT 9999 FEW062 BKN160 BKN180 15/14 Q1017 TEMPO SHRA FEW060CB BKN070
  • 272130Z AUTO 19004KT CAVOK 14/14 Q1017 TEMPO SHRA FEW060CB BKN070
  • 272100Z AUTO 26003KT 5000 BR NSC 15/14 Q1017 TEMPO SHRA FEW060CB BKN070
  • 272030Z AUTO 34001KT 8000 NSC 16/15 Q1017 TEMPO SHRA FEW060CB BKN070

TAF TAF LFLC
Valid from the 27 at 21:00 until the 28 at 21:00 UTC


272000Z 2721/2821 VRB03KT CAVOK
PROB40
TEMPO 2721/2802 SHRA FEW060CB BKN070
PROB30
TEMPO 2802/2806 4500 MIFG
TEMPO 2807/2813 -SHRA SCT050CB BKN070
PROB30
TEMPO 2808/2813 16005KT 4000 -TSRA SCT030CB BKN050
FM281300 05005KT 9999 FEW030CB SCT070
TEMPO 2813/2819 4000 SHRA SCT030CB
PROB40
TEMPO 2813/2819 VRB15G30KT 2000 TSRA BKN015 BKN030CB
ATIS : +33 4 73 62 74 38
No reported NOTAMs for that airfield.
3 SIGMETs reported for the Marseille FIR (LFMM) :
 
Embedded thunderstorms
LFMM SIGMET 19 VALID 272300/280200 LFPW
LFMM MARSEILLE FIR/UIR EMBD TS FCST WI N4600 E00700 - N4400 E00700 - N4400 E00615 - N4600 E00615 - N4600 E00700 TOP FL380 STNR NC=
Embedded thunderstorms
LFMM SIGMET 18 VALID 272300/280300 LFPW
LFMM MARSEILLE FIR/UIR EMBD TS FCST S OF LINE N4000 E00800 - N3930 E00430 TOP FL360 MOV NW 15KT NC=
Severe turbulence
LFMM SIGMET 17 VALID 272300/280300 LFPW
LFMM MARSEILLE FIR/UIR SEV TURB FCST WI N4115 E00430 - N4200 E00430 - N4330 E00900 - N4315 E00945 - N4130 E00945 - N4115 E00430 FL220/330 MOV NW 15KT NC=



MET'MAP, your aeronautical weather chart ! - Copyright ORBIFLY December 2007 - Disclaimer

ORBIFLY MET'MAP TEAM :

Programming & Development : Alexandra Zaïnal
Concept & Development : Baudouin d'Aumeries
Co-Development & Prog : Marc-Olivier Méhu
Technical & hardware support : Manuel Goepfert

Contact : metmap@orbifly.com




SOURCES & CREDITS :

   NOAA